Pagrindinis puslapis
METAR-TAF:

METAR-TAF

Oro uostai :

Kelimanė, Mozambikas

platuma: 17-53S, ilguma: 036-53E, Aukštis: 6 m

Dabartinis oras

Ataskaita buvo paskelbta 1 valandą ir 1 minutes, ne 16:00 UTC
Vėjas 7 kt iš Pietų/Pietryčių
Temperatūra 27°C
Drėgmė 70%
Slėgis 1013 hPa
Matomumas 10 km arba daugiau
Mažai debesys ne aukštis 2000 ft

METAR: FQQL 311600Z 15007KT 9999 FEW020 27/21 Q1013

Laikas: 19:01 (17:01 UTC)

Prognozė

Ataskaita buvo paskelbta 7 valandos ir 1 minutes, ne 10:00 UTC
Prognozė galioja nuo 31 metu 12 UTC su 01 metu 12 UTC
Vėjas 8 kt iš Pietų
Matomumas 10 km arba daugiau
Mažai debesys ne aukštis 2000 ft
Tapsmas
nuo 01 metu 06 UTC su 01 metu 08 UTC
Vėjas 10 kt iš Vakarų

TAF: FQQL 311000Z 3112/0112 18008KT 9999 FEW020 TX31/3113Z TN21/0103Z BECMG 0106/0108 28010KT

Orai ataskaitas ir orų prognozės (METAR, TAF).

turimą stotys yra geltonos ir raudonos taškus žemėlapyje.

Perkelti pele per norėdami pamatyti stoties vardą.

Tada spustelėkite, norėdami matyti oro stebėjimo ir prognozės.

Norėdami pakeisti žemėlapį: spustelėkite ant žalios mygtukų su juodo kryžiaus žemyn,; žalią mygtuką su brūkšneliu, jei norite nutolinti; arba žalių rodyklių gretimoms žemėlapius.


METAR-TAF: